sensor_id;sensor_type;location;lat;lon;timestamp;P1;durP1;ratioP1;P2;durP2;ratioP2
23086;SDS011;11712;51.134;4.156;2023-02-01T00:01:39;29.60;;;10.30;;
23086;SDS011;11712;51.134;4.156;2023-02-01T00:04:04;34.72;;;10.38;;
23086;SDS011;11712;51.134;4.156;2023-02-01T00:06:30;29.70;;;10.60;;
23086;SDS011;11712;51.134;4.156;2023-02-01T00:08:56;34.15;;;10.20;;
23086;SDS011;11712;51.134;4.156;2023-02-01T00:11:22;45.30;;;11.85;;
23086;SDS011;11712;51.134;4.156;2023-02-01T00:13:48;39.30;;;10.27;;
23086;SDS011;11712;51.134;4.156;2023-02-01T00:16:15;41.17;;;9.95;;
23086;SDS011;11712;51.134;4.156;2023-02-01T00:18:45;41.58;;;9.85;;
23086;SDS011;11712;51.134;4.156;2023-02-01T00:21:13;31.00;;;9.18;;
23086;SDS011;11712;51.134;4.156;2023-02-01T00:23:39;43.22;;;9.73;;
23086;SDS011;11712;51.134;4.156;2023-02-01T00:26:07;36.50;;;8.50;;
23086;SDS011;11712;51.134;4.156;2023-02-01T00:28:38;32.00;;;8.38;;
23086;SDS011;11712;51.134;4.156;2023-02-01T00:31:03;37.78;;;8.55;;
23086;SDS011;11712;51.134;4.156;2023-02-01T00:33:30;39.78;;;8.88;;
23086;SDS011;11712;51.134;4.156;2023-02-01T00:36:00;31.52;;;7.28;;
23086;SDS011;11712;51.134;4.156;2023-02-01T00:38:28;25.83;;;7.00;;
23086;SDS011;11712;51.134;4.156;2023-02-01T00:41:01;30.67;;;7.55;;
23086;SDS011;11712;51.134;4.156;2023-02-01T00:43:31;38.42;;;7.93;;
23086;SDS011;11712;51.134;4.156;2023-02-01T00:45:57;24.92;;;7.10;;
23086;SDS011;11712;51.134;4.156;2023-02-01T00:48:23;25.23;;;6.45;;
23086;SDS011;11712;51.134;4.156;2023-02-01T00:50:49;29.95;;;7.05;;
23086;SDS011;11712;51.134;4.156;2023-02-01T00:53:15;29.48;;;7.03;;
23086;SDS011;11712;51.134;4.156;2023-02-01T00:55:40;31.85;;;7.30;;
23086;SDS011;11712;51.134;4.156;2023-02-01T00:58:10;32.22;;;7.18;;
23086;SDS011;11712;51.134;4.156;2023-02-01T01:00:36;27.60;;;6.68;;
23086;SDS011;11712;51.134;4.156;2023-02-01T01:03:01;25.73;;;6.10;;
23086;SDS011;11712;51.134;4.156;2023-02-01T01:05:27;25.73;;;6.20;;
23086;SDS011;11712;51.134;4.156;2023-02-01T01:07:59;38.42;;;7.80;;
23086;SDS011;11712;51.134;4.156;2023-02-01T01:10:24;29.70;;;7.28;;
23086;SDS011;11712;51.134;4.156;2023-02-01T01:12:50;28.40;;;7.00;;
23086;SDS011;11712;51.134;4.156;2023-02-01T01:15:16;20.65;;;6.40;;
23086;SDS011;11712;51.134;4.156;2023-02-01T01:17:42;37.70;;;8.13;;
23086;SDS011;11712;51.134;4.156;2023-02-01T01:20:08;35.92;;;8.15;;
23086;SDS011;11712;51.134;4.156;2023-02-01T01:22:34;32.13;;;6.88;;
23086;SDS011;11712;51.134;4.156;2023-02-01T01:25:00;41.20;;;8.30;;
23086;SDS011;11712;51.134;4.156;2023-02-01T01:27:25;27.02;;;7.75;;
23086;SDS011;11712;51.134;4.156;2023-02-01T01:29:51;29.85;;;6.25;;
23086;SDS011;11712;51.134;4.156;2023-02-01T01:32:17;37.17;;;6.10;;
23086;SDS011;11712;51.134;4.156;2023-02-01T01:34:42;31.80;;;6.10;;
23086;SDS011;11712;51.134;4.156;2023-02-01T01:37:08;26.02;;;6.10;;
23086;SDS011;11712;51.134;4.156;2023-02-01T01:39:34;27.60;;;5.60;;
23086;SDS011;11712;51.134;4.156;2023-02-01T01:41:59;27.25;;;6.10;;
23086;SDS011;11712;51.134;4.156;2023-02-01T01:47:29;26.50;;;6.78;;
23086;SDS011;11712;51.134;4.156;2023-02-01T01:50:19;25.50;;;6.20;;
23086;SDS011;11712;51.134;4.156;2023-02-01T01:52:48;31.35;;;6.00;;
23086;SDS011;11712;51.134;4.156;2023-02-01T01:55:17;31.67;;;6.70;;
23086;SDS011;11712;51.134;4.156;2023-02-01T01:57:46;26.13;;;6.95;;
23086;SDS011;11712;51.134;4.156;2023-02-01T02:00:19;23.75;;;5.68;;
23086;SDS011;11712;51.134;4.156;2023-02-01T02:02:46;34.90;;;6.18;;
23086;SDS011;11712;51.134;4.156;2023-02-01T02:05:17;26.90;;;7.18;;
23086;SDS011;11712;51.134;4.156;2023-02-01T02:07:45;30.33;;;7.22;;
23086;SDS011;11712;51.134;4.156;2023-02-01T02:10:13;31.13;;;6.57;;
23086;SDS011;11712;51.134;4.156;2023-02-01T02:12:41;32.97;;;7.35;;
23086;SDS011;11712;51.134;4.156;2023-02-01T02:15:09;35.10;;;6.05;;
23086;SDS011;11712;51.134;4.156;2023-02-01T02:17:46;28.92;;;5.38;;
23086;SDS011;11712;51.134;4.156;2023-02-01T02:23:37;22.67;;;5.03;;
23086;SDS011;11712;51.134;4.156;2023-02-01T02:40:48;28.38;;;5.50;;
23086;SDS011;11712;51.134;4.156;2023-02-01T02:43:20;33.70;;;5.72;;
23086;SDS011;11712;51.134;4.156;2023-02-01T02:49:36;24.33;;;5.00;;
23086;SDS011;11712;51.134;4.156;2023-02-01T02:52:29;26.33;;;5.82;;
23086;SDS011;11712;51.134;4.156;2023-02-01T02:55:15;36.08;;;7.00;;
23086;SDS011;11712;51.134;4.156;2023-02-01T02:57:41;23.45;;;5.57;;
23086;SDS011;11712;51.134;4.156;2023-02-01T03:00:29;24.27;;;4.90;;
23086;SDS011;11712;51.134;4.156;2023-02-01T03:03:17;29.10;;;5.88;;
23086;SDS011;11712;51.134;4.156;2023-02-01T03:06:01;30.52;;;5.50;;
23086;SDS011;11712;51.134;4.156;2023-02-01T03:08:28;26.83;;;5.65;;
23086;SDS011;11712;51.134;4.156;2023-02-01T03:11:00;38.80;;;6.05;;
23086;SDS011;11712;51.134;4.156;2023-02-01T03:24:13;27.33;;;4.78;;
23086;SDS011;11712;51.134;4.156;2023-02-01T03:26:48;28.13;;;5.13;;
23086;SDS011;11712;51.134;4.156;2023-02-01T03:29:24;28.35;;;4.65;;
23086;SDS011;11712;51.134;4.156;2023-02-01T03:31:55;34.13;;;6.68;;
23086;SDS011;11712;51.134;4.156;2023-02-01T03:34:21;37.03;;;6.30;;
23086;SDS011;11712;51.134;4.156;2023-02-01T03:36:48;31.90;;;5.65;;
23086;SDS011;11712;51.134;4.156;2023-02-01T03:39:21;29.90;;;5.38;;
23086;SDS011;11712;51.134;4.156;2023-02-01T03:42:00;25.70;;;5.45;;
23086;SDS011;11712;51.134;4.156;2023-02-01T03:44:30;34.35;;;6.35;;
23086;SDS011;11712;51.134;4.156;2023-02-01T03:47:13;33.58;;;6.03;;
23086;SDS011;11712;51.134;4.156;2023-02-01T03:49:59;26.55;;;5.72;;
23086;SDS011;11712;51.134;4.156;2023-02-01T03:52:37;25.38;;;5.20;;
23086;SDS011;11712;51.134;4.156;2023-02-01T03:55:13;38.20;;;5.68;;
23086;SDS011;11712;51.134;4.156;2023-02-01T03:57:43;29.42;;;5.50;;
23086;SDS011;11712;51.134;4.156;2023-02-01T04:00:18;33.70;;;5.88;;
23086;SDS011;11712;51.134;4.156;2023-02-01T04:02:48;43.70;;;6.32;;
23086;SDS011;11712;51.134;4.156;2023-02-01T04:05:14;38.35;;;7.10;;
23086;SDS011;11712;51.134;4.156;2023-02-01T04:07:40;30.90;;;5.47;;
23086;SDS011;11712;51.134;4.156;2023-02-01T04:10:06;33.78;;;6.10;;
23086;SDS011;11712;51.134;4.156;2023-02-01T04:12:32;39.58;;;4.93;;
23086;SDS011;11712;51.134;4.156;2023-02-01T04:14:58;31.52;;;5.35;;
23086;SDS011;11712;51.134;4.156;2023-02-01T04:17:23;40.38;;;6.38;;
23086;SDS011;11712;51.134;4.156;2023-02-01T04:19:49;29.40;;;5.55;;
23086;SDS011;11712;51.134;4.156;2023-02-01T04:22:15;30.45;;;5.45;;
23086;SDS011;11712;51.134;4.156;2023-02-01T04:24:41;33.92;;;5.60;;
23086;SDS011;11712;51.134;4.156;2023-02-01T04:27:06;29.10;;;5.80;;
23086;SDS011;11712;51.134;4.156;2023-02-01T04:29:32;30.90;;;5.93;;
23086;SDS011;11712;51.134;4.156;2023-02-01T04:31:58;34.75;;;6.53;;
23086;SDS011;11712;51.134;4.156;2023-02-01T04:34:24;38.63;;;6.25;;
23086;SDS011;11712;51.134;4.156;2023-02-01T04:36:50;29.02;;;5.50;;
23086;SDS011;11712;51.134;4.156;2023-02-01T04:39:16;43.33;;;6.90;;
23086;SDS011;11712;51.134;4.156;2023-02-01T04:41:42;30.48;;;6.65;;
23086;SDS011;11712;51.134;4.156;2023-02-01T04:44:17;32.67;;;5.90;;
23086;SDS011;11712;51.134;4.156;2023-02-01T04:46:43;39.25;;;7.13;;
23086;SDS011;11712;51.134;4.156;2023-02-01T04:49:11;36.90;;;5.65;;
23086;SDS011;11712;51.134;4.156;2023-02-01T04:51:37;35.35;;;6.90;;
23086;SDS011;11712;51.134;4.156;2023-02-01T04:54:03;29.38;;;5.50;;
23086;SDS011;11712;51.134;4.156;2023-02-01T04:56:29;32.45;;;5.55;;
23086;SDS011;11712;51.134;4.156;2023-02-01T04:58:55;35.72;;;6.90;;
23086;SDS011;11712;51.134;4.156;2023-02-01T05:01:21;29.25;;;5.68;;
23086;SDS011;11712;51.134;4.156;2023-02-01T05:03:47;30.65;;;5.25;;
23086;SDS011;11712;51.134;4.156;2023-02-01T05:06:13;33.90;;;6.40;;
23086;SDS011;11712;51.134;4.156;2023-02-01T05:08:39;34.75;;;5.97;;
23086;SDS011;11712;51.134;4.156;2023-02-01T05:11:05;33.55;;;5.70;;
23086;SDS011;11712;51.134;4.156;2023-02-01T05:13:30;36.25;;;6.80;;
23086;SDS011;11712;51.134;4.156;2023-02-01T05:16:15;37.97;;;6.72;;
23086;SDS011;11712;51.134;4.156;2023-02-01T05:18:41;39.60;;;6.85;;
23086;SDS011;11712;51.134;4.156;2023-02-01T05:21:07;29.63;;;5.85;;
23086;SDS011;11712;51.134;4.156;2023-02-01T05:23:33;39.17;;;6.50;;
23086;SDS011;11712;51.134;4.156;2023-02-01T05:26:18;44.88;;;6.72;;
23086;SDS011;11712;51.134;4.156;2023-02-01T05:28:44;35.47;;;5.93;;
23086;SDS011;11712;51.134;4.156;2023-02-01T05:31:10;30.75;;;5.55;;
23086;SDS011;11712;51.134;4.156;2023-02-01T05:33:36;30.73;;;7.05;;
23086;SDS011;11712;51.134;4.156;2023-02-01T05:36:01;32.22;;;6.03;;
23086;SDS011;11712;51.134;4.156;2023-02-01T05:38:27;38.60;;;5.85;;
23086;SDS011;11712;51.134;4.156;2023-02-01T05:40:54;24.05;;;6.05;;
23086;SDS011;11712;51.134;4.156;2023-02-01T05:43:20;39.65;;;6.68;;
23086;SDS011;11712;51.134;4.156;2023-02-01T05:45:46;39.33;;;6.00;;
23086;SDS011;11712;51.134;4.156;2023-02-01T05:48:12;35.08;;;5.63;;
23086;SDS011;11712;51.134;4.156;2023-02-01T05:50:38;29.15;;;5.72;;
23086;SDS011;11712;51.134;4.156;2023-02-01T05:53:03;30.35;;;6.15;;
23086;SDS011;11712;51.134;4.156;2023-02-01T05:55:29;32.33;;;5.43;;
23086;SDS011;11712;51.134;4.156;2023-02-01T05:57:55;33.13;;;6.05;;
23086;SDS011;11712;51.134;4.156;2023-02-01T06:00:20;49.30;;;6.00;;
23086;SDS011;11712;51.134;4.156;2023-02-01T06:02:47;30.20;;;5.65;;
23086;SDS011;11712;51.134;4.156;2023-02-01T06:05:12;38.85;;;6.03;;
23086;SDS011;11712;51.134;4.156;2023-02-01T06:07:38;30.27;;;5.50;;
23086;SDS011;11712;51.134;4.156;2023-02-01T06:10:04;46.78;;;6.35;;
23086;SDS011;11712;51.134;4.156;2023-02-01T06:12:30;39.95;;;6.53;;
23086;SDS011;11712;51.134;4.156;2023-02-01T06:14:55;44.38;;;6.03;;
23086;SDS011;11712;51.134;4.156;2023-02-01T06:17:21;35.38;;;5.05;;
23086;SDS011;11712;51.134;4.156;2023-02-01T06:19:48;31.33;;;6.35;;
23086;SDS011;11712;51.134;4.156;2023-02-01T06:22:13;25.13;;;5.03;;
23086;SDS011;11712;51.134;4.156;2023-02-01T06:24:39;24.15;;;6.65;;
23086;SDS011;11712;51.134;4.156;2023-02-01T06:27:06;34.38;;;6.25;;
23086;SDS011;11712;51.134;4.156;2023-02-01T06:29:32;33.78;;;6.55;;
23086;SDS011;11712;51.134;4.156;2023-02-01T06:31:58;29.33;;;4.80;;
23086;SDS011;11712;51.134;4.156;2023-02-01T06:34:24;33.67;;;6.05;;
23086;SDS011;11712;51.134;4.156;2023-02-01T06:36:49;31.60;;;6.05;;
23086;SDS011;11712;51.134;4.156;2023-02-01T06:39:15;39.80;;;7.25;;
23086;SDS011;11712;51.134;4.156;2023-02-01T06:41:50;41.13;;;6.15;;
23086;SDS011;11712;51.134;4.156;2023-02-01T06:44:16;28.10;;;5.82;;
23086;SDS011;11712;51.134;4.156;2023-02-01T06:46:42;31.35;;;5.80;;
23086;SDS011;11712;51.134;4.156;2023-02-01T06:49:08;31.25;;;5.20;;
23086;SDS011;11712;51.134;4.156;2023-02-01T06:51:33;31.30;;;5.47;;
23086;SDS011;11712;51.134;4.156;2023-02-01T06:54:00;36.58;;;8.10;;
23086;SDS011;11712;51.134;4.156;2023-02-01T06:56:26;30.77;;;6.28;;
23086;SDS011;11712;51.134;4.156;2023-02-01T06:58:52;21.83;;;4.57;;
23086;SDS011;11712;51.134;4.156;2023-02-01T07:01:18;28.88;;;5.70;;
23086;SDS011;11712;51.134;4.156;2023-02-01T07:03:47;36.92;;;6.10;;
23086;SDS011;11712;51.134;4.156;2023-02-01T07:06:16;33.33;;;6.40;;
23086;SDS011;11712;51.134;4.156;2023-02-01T07:08:42;38.28;;;6.60;;
23086;SDS011;11712;51.134;4.156;2023-02-01T07:11:10;38.92;;;5.88;;
23086;SDS011;11712;51.134;4.156;2023-02-01T07:13:37;32.70;;;6.47;;
23086;SDS011;11712;51.134;4.156;2023-02-01T07:16:04;35.20;;;6.53;;
23086;SDS011;11712;51.134;4.156;2023-02-01T07:18:31;31.85;;;6.80;;
23086;SDS011;11712;51.134;4.156;2023-02-01T07:20:57;26.77;;;4.97;;
23086;SDS011;11712;51.134;4.156;2023-02-01T07:23:24;42.13;;;5.85;;
23086;SDS011;11712;51.134;4.156;2023-02-01T07:26:00;37.38;;;5.97;;
23086;SDS011;11712;51.134;4.156;2023-02-01T07:28:28;30.48;;;6.07;;
23086;SDS011;11712;51.134;4.156;2023-02-01T07:31:01;35.08;;;5.88;;
23086;SDS011;11712;51.134;4.156;2023-02-01T07:33:28;30.58;;;6.22;;
23086;SDS011;11712;51.134;4.156;2023-02-01T07:35:54;35.40;;;5.72;;
23086;SDS011;11712;51.134;4.156;2023-02-01T07:38:19;39.97;;;6.53;;
23086;SDS011;11712;51.134;4.156;2023-02-01T07:40:46;29.50;;;5.40;;
23086;SDS011;11712;51.134;4.156;2023-02-01T07:43:12;34.72;;;5.10;;
23086;SDS011;11712;51.134;4.156;2023-02-01T07:45:38;37.05;;;6.80;;
23086;SDS011;11712;51.134;4.156;2023-02-01T07:48:04;35.65;;;6.65;;
23086;SDS011;11712;51.134;4.156;2023-02-01T07:50:29;28.15;;;6.10;;
23086;SDS011;11712;51.134;4.156;2023-02-01T07:52:55;27.85;;;5.97;;
23086;SDS011;11712;51.134;4.156;2023-02-01T07:55:24;34.55;;;6.07;;
23086;SDS011;11712;51.134;4.156;2023-02-01T07:57:51;32.15;;;7.03;;
23086;SDS011;11712;51.134;4.156;2023-02-01T08:00:17;26.80;;;5.32;;
23086;SDS011;11712;51.134;4.156;2023-02-01T08:03:03;35.63;;;5.82;;
23086;SDS011;11712;51.134;4.156;2023-02-01T08:05:29;36.25;;;7.00;;
23086;SDS011;11712;51.134;4.156;2023-02-01T08:07:55;32.70;;;6.85;;
23086;SDS011;11712;51.134;4.156;2023-02-01T08:10:20;40.38;;;6.53;;
23086;SDS011;11712;51.134;4.156;2023-02-01T08:12:46;31.58;;;6.35;;
23086;SDS011;11712;51.134;4.156;2023-02-01T08:15:13;41.33;;;7.85;;
23086;SDS011;11712;51.134;4.156;2023-02-01T08:17:45;36.17;;;6.97;;
23086;SDS011;11712;51.134;4.156;2023-02-01T08:20:14;32.15;;;6.28;;
23086;SDS011;11712;51.134;4.156;2023-02-01T08:22:40;32.00;;;7.07;;
23086;SDS011;11712;51.134;4.156;2023-02-01T08:25:05;30.88;;;5.43;;
23086;SDS011;11712;51.134;4.156;2023-02-01T08:27:34;31.85;;;6.40;;
23086;SDS011;11712;51.134;4.156;2023-02-01T08:30:00;38.88;;;6.38;;
23086;SDS011;11712;51.134;4.156;2023-02-01T08:32:26;32.63;;;5.63;;
23086;SDS011;11712;51.134;4.156;2023-02-01T08:34:52;34.15;;;7.28;;
23086;SDS011;11712;51.134;4.156;2023-02-01T08:37:18;31.67;;;7.07;;
23086;SDS011;11712;51.134;4.156;2023-02-01T08:39:44;32.13;;;7.10;;
23086;SDS011;11712;51.134;4.156;2023-02-01T08:42:10;40.22;;;6.95;;
23086;SDS011;11712;51.134;4.156;2023-02-01T08:44:55;28.08;;;5.82;;
23086;SDS011;11712;51.134;4.156;2023-02-01T08:47:21;35.60;;;6.25;;
23086;SDS011;11712;51.134;4.156;2023-02-01T08:49:46;39.20;;;8.05;;
23086;SDS011;11712;51.134;4.156;2023-02-01T08:52:12;37.22;;;5.70;;
23086;SDS011;11712;51.134;4.156;2023-02-01T08:54:38;29.65;;;6.07;;
23086;SDS011;11712;51.134;4.156;2023-02-01T08:57:06;34.97;;;6.68;;
23086;SDS011;11712;51.134;4.156;2023-02-01T08:59:31;29.15;;;6.30;;
23086;SDS011;11712;51.134;4.156;2023-02-01T09:01:57;32.55;;;6.15;;
23086;SDS011;11712;51.134;4.156;2023-02-01T09:04:23;35.38;;;6.22;;
23086;SDS011;11712;51.134;4.156;2023-02-01T09:06:49;25.65;;;5.90;;
23086;SDS011;11712;51.134;4.156;2023-02-01T09:09:14;41.35;;;7.72;;
23086;SDS011;11712;51.134;4.156;2023-02-01T09:11:40;37.40;;;5.82;;
23086;SDS011;11712;51.134;4.156;2023-02-01T09:14:05;24.77;;;5.40;;
23086;SDS011;11712;51.134;4.156;2023-02-01T09:16:31;37.55;;;6.50;;
23086;SDS011;11712;51.134;4.156;2023-02-01T09:18:57;26.17;;;6.60;;
23086;SDS011;11712;51.134;4.156;2023-02-01T09:21:23;26.58;;;5.78;;
23086;SDS011;11712;51.134;4.156;2023-02-01T09:23:50;30.75;;;6.53;;
23086;SDS011;11712;51.134;4.156;2023-02-01T09:26:16;36.97;;;5.95;;
23086;SDS011;11712;51.134;4.156;2023-02-01T09:28:42;28.52;;;6.00;;
23086;SDS011;11712;51.134;4.156;2023-02-01T09:31:07;37.28;;;6.03;;
23086;SDS011;11712;51.134;4.156;2023-02-01T09:33:33;41.83;;;7.10;;
23086;SDS011;11712;51.134;4.156;2023-02-01T09:36:00;33.88;;;5.93;;
23086;SDS011;11712;51.134;4.156;2023-02-01T09:38:29;25.20;;;4.70;;
23086;SDS011;11712;51.134;4.156;2023-02-01T09:40:57;29.17;;;5.80;;
23086;SDS011;11712;51.134;4.156;2023-02-01T09:43:32;28.10;;;5.30;;
23086;SDS011;11712;51.134;4.156;2023-02-01T09:46:13;30.92;;;4.95;;
23086;SDS011;11712;51.134;4.156;2023-02-01T09:48:47;31.42;;;5.57;;
23086;SDS011;11712;51.134;4.156;2023-02-01T09:51:22;37.60;;;6.30;;
23086;SDS011;11712;51.134;4.156;2023-02-01T09:54:09;30.70;;;7.00;;
23086;SDS011;11712;51.134;4.156;2023-02-01T09:56:46;31.35;;;6.68;;
23086;SDS011;11712;51.134;4.156;2023-02-01T10:02:40;21.63;;;4.70;;
23086;SDS011;11712;51.134;4.156;2023-02-01T10:05:01;25.15;;;5.05;;
23086;SDS011;11712;51.134;4.156;2023-02-01T10:12:36;19.25;;;4.65;;
23086;SDS011;11712;51.134;4.156;2023-02-01T10:16:02;19.75;;;5.05;;
23086;SDS011;11712;51.134;4.156;2023-02-01T10:20:56;30.42;;;4.50;;
23086;SDS011;11712;51.134;4.156;2023-02-01T10:23:49;27.02;;;6.13;;
23086;SDS011;11712;51.134;4.156;2023-02-01T10:26:24;31.02;;;5.38;;
23086;SDS011;11712;51.134;4.156;2023-02-01T10:28:56;17.88;;;4.57;;
23086;SDS011;11712;51.134;4.156;2023-02-01T10:31:26;27.75;;;5.50;;
23086;SDS011;11712;51.134;4.156;2023-02-01T10:33:58;36.10;;;5.80;;
23086;SDS011;11712;51.134;4.156;2023-02-01T10:36:35;25.05;;;4.55;;
23086;SDS011;11712;51.134;4.156;2023-02-01T10:39:06;26.85;;;5.30;;
23086;SDS011;11712;51.134;4.156;2023-02-01T10:41:36;21.35;;;4.78;;
23086;SDS011;11712;51.134;4.156;2023-02-01T10:44:06;19.42;;;5.00;;
23086;SDS011;11712;51.134;4.156;2023-02-01T10:46:40;19.33;;;4.57;;
23086;SDS011;11712;51.134;4.156;2023-02-01T10:49:09;23.60;;;4.70;;
23086;SDS011;11712;51.134;4.156;2023-02-01T10:52:00;15.13;;;3.75;;
23086;SDS011;11712;51.134;4.156;2023-02-01T10:54:47;23.27;;;4.45;;
23086;SDS011;11712;51.134;4.156;2023-02-01T10:57:20;23.70;;;4.32;;
23086;SDS011;11712;51.134;4.156;2023-02-01T10:59:50;28.88;;;4.35;;
23086;SDS011;11712;51.134;4.156;2023-02-01T11:02:30;19.58;;;3.97;;
23086;SDS011;11712;51.134;4.156;2023-02-01T11:05:05;26.02;;;4.20;;
23086;SDS011;11712;51.134;4.156;2023-02-01T11:07:37;19.75;;;3.88;;
23086;SDS011;11712;51.134;4.156;2023-02-01T11:10:05;26.63;;;4.53;;
23086;SDS011;11712;51.134;4.156;2023-02-01T11:12:32;21.48;;;4.47;;
23086;SDS011;11712;51.134;4.156;2023-02-01T11:17:44;22.48;;;4.15;;
23086;SDS011;11712;51.134;4.156;2023-02-01T11:20:15;21.00;;;4.18;;
23086;SDS011;11712;51.134;4.156;2023-02-01T11:22:56;11.80;;;3.50;;
23086;SDS011;11712;51.134;4.156;2023-02-01T11:25:23;21.38;;;4.45;;
23086;SDS011;11712;51.134;4.156;2023-02-01T11:27:50;14.73;;;3.15;;
23086;SDS011;11712;51.134;4.156;2023-02-01T11:30:18;16.85;;;3.67;;
23086;SDS011;11712;51.134;4.156;2023-02-01T11:32:56;22.33;;;4.20;;
23086;SDS011;11712;51.134;4.156;2023-02-01T11:35:23;19.52;;;3.80;;
23086;SDS011;11712;51.134;4.156;2023-02-01T11:37:54;11.20;;;2.75;;
23086;SDS011;11712;51.134;4.156;2023-02-01T11:45:59;21.13;;;3.83;;
23086;SDS011;11712;51.134;4.156;2023-02-01T11:48:27;18.77;;;3.78;;
23086;SDS011;11712;51.134;4.156;2023-02-01T12:02:46;14.88;;;4.43;;
23086;SDS011;11712;51.134;4.156;2023-02-01T12:05:58;11.43;;;3.15;;
23086;SDS011;11712;51.134;4.156;2023-02-01T12:23:06;15.85;;;2.50;;
23086;SDS011;11712;51.134;4.156;2023-02-01T12:26:02;20.63;;;3.03;;
23086;SDS011;11712;51.134;4.156;2023-02-01T12:29:18;18.08;;;3.58;;
23086;SDS011;11712;51.134;4.156;2023-02-01T12:34:47;19.73;;;3.70;;
23086;SDS011;11712;51.134;4.156;2023-02-01T12:37:43;13.27;;;3.22;;
23086;SDS011;11712;51.134;4.156;2023-02-01T12:43:40;17.77;;;3.55;;
23086;SDS011;11712;51.134;4.156;2023-02-01T12:48:45;10.38;;;3.20;;
23086;SDS011;11712;51.134;4.156;2023-02-01T12:51:18;23.03;;;3.73;;
23086;SDS011;11712;51.134;4.156;2023-02-01T12:56:15;14.98;;;3.58;;
23086;SDS011;11712;51.134;4.156;2023-02-01T12:58:47;15.40;;;3.13;;
23086;SDS011;11712;51.134;4.156;2023-02-01T13:01:25;15.27;;;3.45;;
23086;SDS011;11712;51.134;4.156;2023-02-01T13:06:58;24.98;;;3.83;;
23086;SDS011;11712;51.134;4.156;2023-02-01T13:09:43;17.75;;;3.55;;
23086;SDS011;11712;51.134;4.156;2023-02-01T13:12:16;13.65;;;3.35;;
23086;SDS011;11712;51.134;4.156;2023-02-01T13:18:17;16.83;;;3.15;;
23086;SDS011;11712;51.134;4.156;2023-02-01T13:25:53;20.05;;;3.15;;
23086;SDS011;11712;51.134;4.156;2023-02-01T13:40:05;18.85;;;3.53;;
23086;SDS011;11712;51.134;4.156;2023-02-01T13:42:46;19.30;;;3.88;;
23086;SDS011;11712;51.134;4.156;2023-02-01T13:45:16;20.05;;;3.80;;
23086;SDS011;11712;51.134;4.156;2023-02-01T13:47:46;14.45;;;3.20;;
23086;SDS011;11712;51.134;4.156;2023-02-01T13:53:02;19.83;;;3.83;;
23086;SDS011;11712;51.134;4.156;2023-02-01T13:55:56;18.85;;;3.85;;
23086;SDS011;11712;51.134;4.156;2023-02-01T13:58:29;28.02;;;3.95;;
23086;SDS011;11712;51.134;4.156;2023-02-01T14:09:11;12.45;;;3.25;;
23086;SDS011;11712;51.134;4.156;2023-02-01T14:11:44;19.40;;;3.63;;
23086;SDS011;11712;51.134;4.156;2023-02-01T14:16:42;23.60;;;4.43;;
23086;SDS011;11712;51.134;4.156;2023-02-01T14:21:51;16.60;;;3.67;;
23086;SDS011;11712;51.134;4.156;2023-02-01T14:27:02;17.15;;;4.57;;
23086;SDS011;11712;51.134;4.156;2023-02-01T14:29:44;30.70;;;4.85;;
23086;SDS011;11712;51.134;4.156;2023-02-01T14:32:23;18.13;;;4.10;;
23086;SDS011;11712;51.134;4.156;2023-02-01T14:34:51;15.57;;;4.05;;
23086;SDS011;11712;51.134;4.156;2023-02-01T14:39:50;17.75;;;4.47;;
23086;SDS011;11712;51.134;4.156;2023-02-01T14:47:54;20.27;;;4.78;;
23086;SDS011;11712;51.134;4.156;2023-02-01T14:50:41;26.73;;;4.38;;
23086;SDS011;11712;51.134;4.156;2023-02-01T14:58:10;27.10;;;4.18;;
23086;SDS011;11712;51.134;4.156;2023-02-01T15:00:47;27.02;;;4.78;;
23086;SDS011;11712;51.134;4.156;2023-02-01T15:06:02;17.58;;;3.83;;
23086;SDS011;11712;51.134;4.156;2023-02-01T15:08:31;19.15;;;3.70;;
23086;SDS011;11712;51.134;4.156;2023-02-01T15:11:08;20.65;;;3.90;;
23086;SDS011;11712;51.134;4.156;2023-02-01T15:13:39;21.58;;;3.78;;
23086;SDS011;11712;51.134;4.156;2023-02-01T15:16:12;20.58;;;4.45;;
23086;SDS011;11712;51.134;4.156;2023-02-01T15:18:40;18.92;;;4.22;;
23086;SDS011;11712;51.134;4.156;2023-02-01T15:21:12;28.83;;;4.88;;
23086;SDS011;11712;51.134;4.156;2023-02-01T15:23:41;24.20;;;4.25;;
23086;SDS011;11712;51.134;4.156;2023-02-01T15:26:07;24.77;;;6.70;;
23086;SDS011;11712;51.134;4.156;2023-02-01T15:28:32;25.15;;;4.13;;
23086;SDS011;11712;51.134;4.156;2023-02-01T15:30:59;22.45;;;4.60;;
23086;SDS011;11712;51.134;4.156;2023-02-01T15:33:28;20.35;;;3.95;;
23086;SDS011;11712;51.134;4.156;2023-02-01T15:38:32;27.63;;;4.47;;
23086;SDS011;11712;51.134;4.156;2023-02-01T15:41:08;26.65;;;4.70;;
23086;SDS011;11712;51.134;4.156;2023-02-01T15:46:15;32.70;;;4.40;;
23086;SDS011;11712;51.134;4.156;2023-02-01T15:48:46;35.47;;;5.45;;
23086;SDS011;11712;51.134;4.156;2023-02-01T15:51:15;33.00;;;6.05;;
23086;SDS011;11712;51.134;4.156;2023-02-01T15:53:49;27.33;;;5.88;;
23086;SDS011;11712;51.134;4.156;2023-02-01T15:58:49;25.85;;;5.45;;
23086;SDS011;11712;51.134;4.156;2023-02-01T16:01:18;28.60;;;4.40;;
23086;SDS011;11712;51.134;4.156;2023-02-01T16:03:44;21.05;;;3.92;;
23086;SDS011;11712;51.134;4.156;2023-02-01T16:06:33;18.70;;;4.60;;
23086;SDS011;11712;51.134;4.156;2023-02-01T16:11:46;20.92;;;4.40;;
23086;SDS011;11712;51.134;4.156;2023-02-01T16:14:17;26.75;;;5.18;;
23086;SDS011;11712;51.134;4.156;2023-02-01T16:16:42;22.42;;;4.53;;
23086;SDS011;11712;51.134;4.156;2023-02-01T16:19:08;24.35;;;4.78;;
23086;SDS011;11712;51.134;4.156;2023-02-01T16:21:34;23.90;;;4.72;;
23086;SDS011;11712;51.134;4.156;2023-02-01T16:23:59;26.80;;;5.32;;
23086;SDS011;11712;51.134;4.156;2023-02-01T16:26:28;19.58;;;4.50;;
23086;SDS011;11712;51.134;4.156;2023-02-01T16:28:58;31.17;;;5.30;;
23086;SDS011;11712;51.134;4.156;2023-02-01T16:31:30;30.20;;;5.43;;
23086;SDS011;11712;51.134;4.156;2023-02-01T16:33:56;28.45;;;6.95;;
23086;SDS011;11712;51.134;4.156;2023-02-01T16:36:22;24.42;;;4.68;;
23086;SDS011;11712;51.134;4.156;2023-02-01T16:38:49;31.42;;;5.28;;
23086;SDS011;11712;51.134;4.156;2023-02-01T16:41:18;31.13;;;5.30;;
23086;SDS011;11712;51.134;4.156;2023-02-01T16:43:45;37.70;;;5.85;;
23086;SDS011;11712;51.134;4.156;2023-02-01T16:46:18;24.57;;;4.87;;
23086;SDS011;11712;51.134;4.156;2023-02-01T16:48:57;19.73;;;4.80;;
23086;SDS011;11712;51.134;4.156;2023-02-01T16:51:24;24.50;;;4.70;;
23086;SDS011;11712;51.134;4.156;2023-02-01T16:53:53;28.98;;;5.80;;
23086;SDS011;11712;51.134;4.156;2023-02-01T16:56:23;18.40;;;5.32;;
23086;SDS011;11712;51.134;4.156;2023-02-01T16:58:53;25.42;;;5.53;;
23086;SDS011;11712;51.134;4.156;2023-02-01T17:01:19;33.00;;;4.97;;
23086;SDS011;11712;51.134;4.156;2023-02-01T17:03:45;23.15;;;5.00;;
23086;SDS011;11712;51.134;4.156;2023-02-01T17:06:12;16.90;;;4.15;;
23086;SDS011;11712;51.134;4.156;2023-02-01T17:08:45;25.83;;;5.25;;
23086;SDS011;11712;51.134;4.156;2023-02-01T17:11:14;30.75;;;5.72;;
23086;SDS011;11712;51.134;4.156;2023-02-01T17:13:40;28.92;;;6.93;;
23086;SDS011;11712;51.134;4.156;2023-02-01T17:16:26;26.83;;;6.03;;
23086;SDS011;11712;51.134;4.156;2023-02-01T17:18:57;27.05;;;5.57;;
23086;SDS011;11712;51.134;4.156;2023-02-01T17:21:26;24.50;;;5.75;;
23086;SDS011;11712;51.134;4.156;2023-02-01T17:23:53;20.52;;;5.18;;
23086;SDS011;11712;51.134;4.156;2023-02-01T17:26:19;37.15;;;5.82;;
23086;SDS011;11712;51.134;4.156;2023-02-01T17:28:45;33.67;;;6.28;;
23086;SDS011;11712;51.134;4.156;2023-02-01T17:31:12;33.08;;;5.35;;